sensor_id;sensor_type;location;lat;lon;timestamp;temperature;humidity
33023;DHT22;19390;51.460;5.710;2022-10-26T00:01:30;10.10;99.90
33023;DHT22;19390;51.460;5.710;2022-10-26T00:03:56;10.10;99.90
33023;DHT22;19390;51.460;5.710;2022-10-26T00:06:23;10.30;99.90
33023;DHT22;19390;51.460;5.710;2022-10-26T00:08:50;10.30;99.90
33023;DHT22;19390;51.460;5.710;2022-10-26T00:11:17;10.20;99.90
33023;DHT22;19390;51.460;5.710;2022-10-26T00:13:44;10.20;99.90
33023;DHT22;19390;51.460;5.710;2022-10-26T00:16:12;10.30;99.90
33023;DHT22;19390;51.460;5.710;2022-10-26T00:18:39;10.30;99.90
33023;DHT22;19390;51.460;5.710;2022-10-26T00:21:06;10.30;99.90
33023;DHT22;19390;51.460;5.710;2022-10-26T00:23:32;10.40;99.90
33023;DHT22;19390;51.460;5.710;2022-10-26T00:25:58;10.50;99.90
33023;DHT22;19390;51.460;5.710;2022-10-26T00:28:24;10.40;99.90
33023;DHT22;19390;51.460;5.710;2022-10-26T00:30:49;10.60;99.90
33023;DHT22;19390;51.460;5.710;2022-10-26T00:33:15;10.60;99.90
33023;DHT22;19390;51.460;5.710;2022-10-26T00:35:41;10.70;99.90
33023;DHT22;19390;51.460;5.710;2022-10-26T00:38:07;10.70;99.90
33023;DHT22;19390;51.460;5.710;2022-10-26T00:40:33;10.80;99.90
33023;DHT22;19390;51.460;5.710;2022-10-26T00:42:58;10.80;99.90
33023;DHT22;19390;51.460;5.710;2022-10-26T00:45:29;10.80;99.90
33023;DHT22;19390;51.460;5.710;2022-10-26T00:48:03;10.80;99.90
33023;DHT22;19390;51.460;5.710;2022-10-26T00:50:41;10.80;99.90
33023;DHT22;19390;51.460;5.710;2022-10-26T00:53:09;10.80;99.90
33023;DHT22;19390;51.460;5.710;2022-10-26T00:55:39;10.80;99.90
33023;DHT22;19390;51.460;5.710;2022-10-26T00:58:10;10.70;99.90
33023;DHT22;19390;51.460;5.710;2022-10-26T01:00:36;10.80;99.90
33023;DHT22;19390;51.460;5.710;2022-10-26T01:03:07;10.80;99.90
33023;DHT22;19390;51.460;5.710;2022-10-26T01:05:35;10.80;99.90
33023;DHT22;19390;51.460;5.710;2022-10-26T01:08:01;10.80;99.90
33023;DHT22;19390;51.460;5.710;2022-10-26T01:10:27;10.80;99.90
33023;DHT22;19390;51.460;5.710;2022-10-26T01:12:54;10.70;99.90
33023;DHT22;19390;51.460;5.710;2022-10-26T01:15:23;10.70;99.90
33023;DHT22;19390;51.460;5.710;2022-10-26T01:17:57;10.70;99.90
33023;DHT22;19390;51.460;5.710;2022-10-26T01:23:32;10.60;99.90
33023;DHT22;19390;51.460;5.710;2022-10-26T01:26:16;10.60;99.90
33023;DHT22;19390;51.460;5.710;2022-10-26T01:31:25;10.60;99.90
33023;DHT22;19390;51.460;5.710;2022-10-26T01:34:02;10.60;99.90
33023;DHT22;19390;51.460;5.710;2022-10-26T01:36:47;10.70;99.90
33023;DHT22;19390;51.460;5.710;2022-10-26T01:39:18;10.60;99.90
33023;DHT22;19390;51.460;5.710;2022-10-26T01:41:50;10.60;99.90
33023;DHT22;19390;51.460;5.710;2022-10-26T01:44:20;10.70;99.90
33023;DHT22;19390;51.460;5.710;2022-10-26T01:46:50;10.70;99.90
33023;DHT22;19390;51.460;5.710;2022-10-26T01:49:20;10.70;99.90
33023;DHT22;19390;51.460;5.710;2022-10-26T01:51:48;10.70;99.90
33023;DHT22;19390;51.460;5.710;2022-10-26T01:54:14;10.80;99.90
33023;DHT22;19390;51.460;5.710;2022-10-26T01:56:43;10.80;99.90
33023;DHT22;19390;51.460;5.710;2022-10-26T02:02:52;10.70;99.90
33023;DHT22;19390;51.460;5.710;2022-10-26T02:05:56;10.70;99.90
33023;DHT22;19390;51.460;5.710;2022-10-26T02:08:49;10.80;99.90
33023;DHT22;19390;51.460;5.710;2022-10-26T02:13:51;10.90;99.90
33023;DHT22;19390;51.460;5.710;2022-10-26T02:21:34;10.90;99.90
33023;DHT22;19390;51.460;5.710;2022-10-26T02:24:01;10.90;99.90
33023;DHT22;19390;51.460;5.710;2022-10-26T02:26:29;10.90;99.90
33023;DHT22;19390;51.460;5.710;2022-10-26T02:29:00;10.90;99.90
33023;DHT22;19390;51.460;5.710;2022-10-26T02:31:27;10.90;99.90
33023;DHT22;19390;51.460;5.710;2022-10-26T02:33:53;10.80;99.90
33023;DHT22;19390;51.460;5.710;2022-10-26T02:36:25;10.90;99.90
33023;DHT22;19390;51.460;5.710;2022-10-26T02:38:53;10.90;99.90
33023;DHT22;19390;51.460;5.710;2022-10-26T02:41:20;10.90;99.90
33023;DHT22;19390;51.460;5.710;2022-10-26T02:43:53;10.90;99.90
33023;DHT22;19390;51.460;5.710;2022-10-26T02:46:22;11.00;99.90
33023;DHT22;19390;51.460;5.710;2022-10-26T02:48:50;11.10;99.90
33023;DHT22;19390;51.460;5.710;2022-10-26T02:51:22;11.00;99.90
33023;DHT22;19390;51.460;5.710;2022-10-26T02:54:15;11.00;99.90
33023;DHT22;19390;51.460;5.710;2022-10-26T02:56:53;11.10;99.90
33023;DHT22;19390;51.460;5.710;2022-10-26T02:59:22;11.10;99.90
33023;DHT22;19390;51.460;5.710;2022-10-26T03:01:50;11.10;99.90
33023;DHT22;19390;51.460;5.710;2022-10-26T03:04:16;11.20;99.90
33023;DHT22;19390;51.460;5.710;2022-10-26T03:06:41;11.10;99.90
33023;DHT22;19390;51.460;5.710;2022-10-26T03:09:15;11.20;99.90
33023;DHT22;19390;51.460;5.710;2022-10-26T03:11:41;11.30;99.90
33023;DHT22;19390;51.460;5.710;2022-10-26T03:14:07;11.30;99.90
33023;DHT22;19390;51.460;5.710;2022-10-26T03:16:32;11.30;99.90
33023;DHT22;19390;51.460;5.710;2022-10-26T03:18:58;11.20;99.90
33023;DHT22;19390;51.460;5.710;2022-10-26T03:21:23;11.30;99.90
33023;DHT22;19390;51.460;5.710;2022-10-26T03:23:49;11.30;99.90
33023;DHT22;19390;51.460;5.710;2022-10-26T03:26:15;11.30;99.90
33023;DHT22;19390;51.460;5.710;2022-10-26T03:28:42;11.30;99.90
33023;DHT22;19390;51.460;5.710;2022-10-26T03:31:07;11.40;99.90
33023;DHT22;19390;51.460;5.710;2022-10-26T03:33:33;11.40;99.90
33023;DHT22;19390;51.460;5.710;2022-10-26T03:35:59;11.30;99.90
33023;DHT22;19390;51.460;5.710;2022-10-26T03:38:24;11.40;99.90
33023;DHT22;19390;51.460;5.710;2022-10-26T03:40:50;11.50;99.90
33023;DHT22;19390;51.460;5.710;2022-10-26T03:43:16;11.50;99.90
33023;DHT22;19390;51.460;5.710;2022-10-26T03:45:42;11.50;99.90
33023;DHT22;19390;51.460;5.710;2022-10-26T03:48:07;11.40;99.90
33023;DHT22;19390;51.460;5.710;2022-10-26T03:50:33;11.60;99.90
33023;DHT22;19390;51.460;5.710;2022-10-26T03:52:59;11.50;99.90
33023;DHT22;19390;51.460;5.710;2022-10-26T03:55:24;11.50;99.90
33023;DHT22;19390;51.460;5.710;2022-10-26T03:57:50;11.50;99.90
33023;DHT22;19390;51.460;5.710;2022-10-26T04:00:16;11.50;99.90
33023;DHT22;19390;51.460;5.710;2022-10-26T04:02:43;11.50;99.90
33023;DHT22;19390;51.460;5.710;2022-10-26T04:05:13;11.60;99.90
33023;DHT22;19390;51.460;5.710;2022-10-26T04:07:38;11.50;99.90
33023;DHT22;19390;51.460;5.710;2022-10-26T04:10:05;11.40;99.90
33023;DHT22;19390;51.460;5.710;2022-10-26T04:12:31;11.40;99.90
33023;DHT22;19390;51.460;5.710;2022-10-26T04:14:56;11.40;99.90
33023;DHT22;19390;51.460;5.710;2022-10-26T04:17:23;11.40;99.90
33023;DHT22;19390;51.460;5.710;2022-10-26T04:19:49;11.40;99.90
33023;DHT22;19390;51.460;5.710;2022-10-26T04:22:15;11.40;99.90
33023;DHT22;19390;51.460;5.710;2022-10-26T04:24:40;11.50;99.90
33023;DHT22;19390;51.460;5.710;2022-10-26T04:27:06;11.50;99.90
33023;DHT22;19390;51.460;5.710;2022-10-26T04:29:31;11.50;99.90
33023;DHT22;19390;51.460;5.710;2022-10-26T04:31:57;11.50;99.90
33023;DHT22;19390;51.460;5.710;2022-10-26T04:34:23;11.60;99.90
33023;DHT22;19390;51.460;5.710;2022-10-26T04:36:48;11.50;99.90
33023;DHT22;19390;51.460;5.710;2022-10-26T04:39:14;11.60;99.90
33023;DHT22;19390;51.460;5.710;2022-10-26T04:41:40;11.50;99.90
33023;DHT22;19390;51.460;5.710;2022-10-26T04:44:05;11.60;99.90
33023;DHT22;19390;51.460;5.710;2022-10-26T04:46:31;11.80;99.90
33023;DHT22;19390;51.460;5.710;2022-10-26T04:48:57;11.70;99.90
33023;DHT22;19390;51.460;5.710;2022-10-26T04:51:22;11.80;99.90
33023;DHT22;19390;51.460;5.710;2022-10-26T04:53:48;11.80;99.90
33023;DHT22;19390;51.460;5.710;2022-10-26T04:56:14;11.80;99.90
33023;DHT22;19390;51.460;5.710;2022-10-26T04:58:39;11.90;99.90
33023;DHT22;19390;51.460;5.710;2022-10-26T05:01:05;11.90;99.90
33023;DHT22;19390;51.460;5.710;2022-10-26T05:03:30;11.90;99.90
33023;DHT22;19390;51.460;5.710;2022-10-26T05:06:00;11.90;99.90
33023;DHT22;19390;51.460;5.710;2022-10-26T05:08:27;12.00;99.90
33023;DHT22;19390;51.460;5.710;2022-10-26T05:10:54;12.00;99.90
33023;DHT22;19390;51.460;5.710;2022-10-26T05:13:20;11.90;99.90
33023;DHT22;19390;51.460;5.710;2022-10-26T05:15:45;11.90;99.90
33023;DHT22;19390;51.460;5.710;2022-10-26T05:18:11;12.00;99.90
33023;DHT22;19390;51.460;5.710;2022-10-26T05:20:37;12.00;99.90
33023;DHT22;19390;51.460;5.710;2022-10-26T05:23:08;12.00;99.90
33023;DHT22;19390;51.460;5.710;2022-10-26T05:25:36;12.00;99.90
33023;DHT22;19390;51.460;5.710;2022-10-26T05:28:04;11.90;99.90
33023;DHT22;19390;51.460;5.710;2022-10-26T05:30:30;12.00;99.90
33023;DHT22;19390;51.460;5.710;2022-10-26T05:32:58;12.00;99.90
33023;DHT22;19390;51.460;5.710;2022-10-26T05:35:24;12.00;99.90
33023;DHT22;19390;51.460;5.710;2022-10-26T05:37:50;12.00;99.90
33023;DHT22;19390;51.460;5.710;2022-10-26T05:40:16;11.90;99.90
33023;DHT22;19390;51.460;5.710;2022-10-26T05:42:43;11.90;99.90
33023;DHT22;19390;51.460;5.710;2022-10-26T05:45:09;11.90;99.90
33023;DHT22;19390;51.460;5.710;2022-10-26T05:47:41;12.00;99.90
33023;DHT22;19390;51.460;5.710;2022-10-26T05:50:08;12.00;99.90
33023;DHT22;19390;51.460;5.710;2022-10-26T05:52:39;12.00;99.90
33023;DHT22;19390;51.460;5.710;2022-10-26T05:55:09;12.00;99.90
33023;DHT22;19390;51.460;5.710;2022-10-26T05:57:35;12.00;99.90
33023;DHT22;19390;51.460;5.710;2022-10-26T06:00:05;12.00;99.90
33023;DHT22;19390;51.460;5.710;2022-10-26T06:02:39;12.00;99.90
33023;DHT22;19390;51.460;5.710;2022-10-26T06:05:09;12.00;99.90
33023;DHT22;19390;51.460;5.710;2022-10-26T06:07:36;12.00;99.90
33023;DHT22;19390;51.460;5.710;2022-10-26T06:10:02;12.00;99.90
33023;DHT22;19390;51.460;5.710;2022-10-26T06:12:28;11.90;99.90
33023;DHT22;19390;51.460;5.710;2022-10-26T06:14:54;11.90;99.90
33023;DHT22;19390;51.460;5.710;2022-10-26T06:28:10;11.90;99.90
33023;DHT22;19390;51.460;5.710;2022-10-26T06:30:39;11.90;99.90
33023;DHT22;19390;51.460;5.710;2022-10-26T06:33:06;11.90;99.90
33023;DHT22;19390;51.460;5.710;2022-10-26T06:35:35;12.00;99.90
33023;DHT22;19390;51.460;5.710;2022-10-26T06:38:06;11.90;99.90
33023;DHT22;19390;51.460;5.710;2022-10-26T06:40:35;11.90;99.90
33023;DHT22;19390;51.460;5.710;2022-10-26T06:43:02;11.80;99.90
33023;DHT22;19390;51.460;5.710;2022-10-26T06:45:28;11.90;99.90
33023;DHT22;19390;51.460;5.710;2022-10-26T06:48:12;11.90;99.90
33023;DHT22;19390;51.460;5.710;2022-10-26T06:50:50;11.80;99.90
33023;DHT22;19390;51.460;5.710;2022-10-26T06:53:32;11.80;99.90
33023;DHT22;19390;51.460;5.710;2022-10-26T06:56:00;11.90;99.90
33023;DHT22;19390;51.460;5.710;2022-10-26T06:58:34;11.90;99.90
33023;DHT22;19390;51.460;5.710;2022-10-26T07:01:00;12.00;99.90
33023;DHT22;19390;51.460;5.710;2022-10-26T07:03:26;12.10;99.90
33023;DHT22;19390;51.460;5.710;2022-10-26T07:05:52;12.30;99.90
33023;DHT22;19390;51.460;5.710;2022-10-26T07:08:18;12.40;99.90
33023;DHT22;19390;51.460;5.710;2022-10-26T07:10:44;12.50;99.90
33023;DHT22;19390;51.460;5.710;2022-10-26T07:13:10;12.60;99.90
33023;DHT22;19390;51.460;5.710;2022-10-26T07:15:37;12.60;99.90
33023;DHT22;19390;51.460;5.710;2022-10-26T07:18:04;12.60;99.90
33023;DHT22;19390;51.460;5.710;2022-10-26T07:20:31;12.70;99.90
33023;DHT22;19390;51.460;5.710;2022-10-26T07:22:57;12.60;99.90
33023;DHT22;19390;51.460;5.710;2022-10-26T07:25:24;12.60;99.90
33023;DHT22;19390;51.460;5.710;2022-10-26T07:27:50;12.80;99.90
33023;DHT22;19390;51.460;5.710;2022-10-26T07:30:17;13.20;99.90
33023;DHT22;19390;51.460;5.710;2022-10-26T07:32:43;16.60;99.90
33023;DHT22;19390;51.460;5.710;2022-10-26T07:35:09;18.00;99.90
33023;DHT22;19390;51.460;5.710;2022-10-26T07:37:35;18.90;99.90
33023;DHT22;19390;51.460;5.710;2022-10-26T07:40:00;20.70;99.90
33023;DHT22;19390;51.460;5.710;2022-10-26T07:42:26;19.60;99.90
33023;DHT22;19390;51.460;5.710;2022-10-26T07:44:52;20.40;1.00
33023;DHT22;19390;51.460;5.710;2022-10-26T07:47:17;21.60;1.00
33023;DHT22;19390;51.460;5.710;2022-10-26T07:49:43;20.30;99.90
33023;DHT22;19390;51.460;5.710;2022-10-26T07:52:09;21.60;1.00
33023;DHT22;19390;51.460;5.710;2022-10-26T07:54:35;21.80;1.00
33023;DHT22;19390;51.460;5.710;2022-10-26T07:57:01;23.00;1.00
33023;DHT22;19390;51.460;5.710;2022-10-26T07:59:27;23.80;99.90
33023;DHT22;19390;51.460;5.710;2022-10-26T08:01:53;24.80;1.00
33023;DHT22;19390;51.460;5.710;2022-10-26T08:04:19;21.90;99.90
33023;DHT22;19390;51.460;5.710;2022-10-26T08:06:44;17.80;99.90
33023;DHT22;19390;51.460;5.710;2022-10-26T08:09:11;16.10;99.90
33023;DHT22;19390;51.460;5.710;2022-10-26T08:11:37;15.30;99.90
33023;DHT22;19390;51.460;5.710;2022-10-26T08:14:03;15.10;99.90
33023;DHT22;19390;51.460;5.710;2022-10-26T08:16:29;15.60;99.90
33023;DHT22;19390;51.460;5.710;2022-10-26T08:18:55;19.60;99.90
33023;DHT22;19390;51.460;5.710;2022-10-26T08:21:21;23.90;1.00
33023;DHT22;19390;51.460;5.710;2022-10-26T08:23:46;23.40;1.00
33023;DHT22;19390;51.460;5.710;2022-10-26T08:26:12;23.90;99.90
33023;DHT22;19390;51.460;5.710;2022-10-26T08:28:39;24.10;99.90
33023;DHT22;19390;51.460;5.710;2022-10-26T08:31:06;23.00;1.00
33023;DHT22;19390;51.460;5.710;2022-10-26T08:33:32;22.70;1.00
33023;DHT22;19390;51.460;5.710;2022-10-26T08:36:00;22.40;1.00
33023;DHT22;19390;51.460;5.710;2022-10-26T08:38:26;21.80;1.00
33023;DHT22;19390;51.460;5.710;2022-10-26T08:40:52;21.30;1.00
33023;DHT22;19390;51.460;5.710;2022-10-26T08:43:31;21.80;1.00
33023;DHT22;19390;51.460;5.710;2022-10-26T08:49:08;22.50;99.90
33023;DHT22;19390;51.460;5.710;2022-10-26T08:51:39;21.60;99.90
33023;DHT22;19390;51.460;5.710;2022-10-26T08:54:40;19.10;99.90
33023;DHT22;19390;51.460;5.710;2022-10-26T08:57:21;17.80;99.90
33023;DHT22;19390;51.460;5.710;2022-10-26T09:00:02;17.20;99.90
33023;DHT22;19390;51.460;5.710;2022-10-26T09:02:28;17.10;99.90
33023;DHT22;19390;51.460;5.710;2022-10-26T09:04:56;16.90;99.90
33023;DHT22;19390;51.460;5.710;2022-10-26T09:15:51;17.00;99.90
33023;DHT22;19390;51.460;5.710;2022-10-26T09:18:30;17.20;99.90
33023;DHT22;19390;51.460;5.710;2022-10-26T09:21:10;17.30;99.90
33023;DHT22;19390;51.460;5.710;2022-10-26T09:24:32;17.40;99.90
33023;DHT22;19390;51.460;5.710;2022-10-26T09:29:37;17.50;99.90
33023;DHT22;19390;51.460;5.710;2022-10-26T09:32:18;17.60;99.90
33023;DHT22;19390;51.460;5.710;2022-10-26T09:34:48;17.50;99.90
33023;DHT22;19390;51.460;5.710;2022-10-26T09:37:36;17.70;99.90
33023;DHT22;19390;51.460;5.710;2022-10-26T09:42:41;17.80;99.90
33023;DHT22;19390;51.460;5.710;2022-10-26T09:45:19;17.90;99.90
33023;DHT22;19390;51.460;5.710;2022-10-26T09:47:50;17.90;99.90
33023;DHT22;19390;51.460;5.710;2022-10-26T09:50:27;18.00;99.90
33023;DHT22;19390;51.460;5.710;2022-10-26T09:52:53;18.10;99.90
33023;DHT22;19390;51.460;5.710;2022-10-26T09:55:19;18.10;99.90
33023;DHT22;19390;51.460;5.710;2022-10-26T09:57:51;18.40;99.90
33023;DHT22;19390;51.460;5.710;2022-10-26T10:00:20;18.60;99.90
33023;DHT22;19390;51.460;5.710;2022-10-26T10:02:52;18.50;99.90
33023;DHT22;19390;51.460;5.710;2022-10-26T10:05:33;18.40;99.90
33023;DHT22;19390;51.460;5.710;2022-10-26T10:08:24;18.60;99.90
33023;DHT22;19390;51.460;5.710;2022-10-26T10:11:04;18.60;99.90
33023;DHT22;19390;51.460;5.710;2022-10-26T10:13:32;18.50;99.90
33023;DHT22;19390;51.460;5.710;2022-10-26T10:16:12;18.70;99.90
33023;DHT22;19390;51.460;5.710;2022-10-26T10:18:58;18.50;99.90
33023;DHT22;19390;51.460;5.710;2022-10-26T10:21:39;18.60;99.90
33023;DHT22;19390;51.460;5.710;2022-10-26T10:29:33;18.60;99.90
33023;DHT22;19390;51.460;5.710;2022-10-26T10:32:02;18.70;99.90
33023;DHT22;19390;51.460;5.710;2022-10-26T10:34:31;18.90;99.90
33023;DHT22;19390;51.460;5.710;2022-10-26T10:36:58;18.90;99.90
33023;DHT22;19390;51.460;5.710;2022-10-26T10:39:41;19.00;99.90
33023;DHT22;19390;51.460;5.710;2022-10-26T10:42:24;19.20;99.90
33023;DHT22;19390;51.460;5.710;2022-10-26T10:44:53;19.90;99.90
33023;DHT22;19390;51.460;5.710;2022-10-26T10:47:31;19.70;99.90
33023;DHT22;19390;51.460;5.710;2022-10-26T10:50:01;19.90;99.90
33023;DHT22;19390;51.460;5.710;2022-10-26T10:52:30;20.00;99.90
33023;DHT22;19390;51.460;5.710;2022-10-26T11:00:43;19.90;99.90
33023;DHT22;19390;51.460;5.710;2022-10-26T11:06:22;19.60;99.90
33023;DHT22;19390;51.460;5.710;2022-10-26T11:08:52;19.90;99.90
33023;DHT22;19390;51.460;5.710;2022-10-26T11:11:42;20.50;99.90
33023;DHT22;19390;51.460;5.710;2022-10-26T11:14:14;23.00;28.90
33023;DHT22;19390;51.460;5.710;2022-10-26T11:22:24;23.40;99.90
33023;DHT22;19390;51.460;5.710;2022-10-26T11:25:06;22.00;97.10
33023;DHT22;19390;51.460;5.710;2022-10-26T11:27:54;21.20;1.00
33023;DHT22;19390;51.460;5.710;2022-10-26T11:30:22;22.00;99.90
33023;DHT22;19390;51.460;5.710;2022-10-26T11:33:28;23.00;99.90
33023;DHT22;19390;51.460;5.710;2022-10-26T11:35:56;23.80;99.90
33023;DHT22;19390;51.460;5.710;2022-10-26T11:38:49;23.30;1.00
33023;DHT22;19390;51.460;5.710;2022-10-26T11:43:54;23.50;1.00
33023;DHT22;19390;51.460;5.710;2022-10-26T11:46:27;22.80;1.00
33023;DHT22;19390;51.460;5.710;2022-10-26T11:48:59;24.60;1.00
33023;DHT22;19390;51.460;5.710;2022-10-26T11:53:57;25.70;1.00
33023;DHT22;19390;51.460;5.710;2022-10-26T11:56:47;25.00;1.00
33023;DHT22;19390;51.460;5.710;2022-10-26T11:59:19;24.10;1.00
33023;DHT22;19390;51.460;5.710;2022-10-26T12:01:51;24.00;99.90
33023;DHT22;19390;51.460;5.710;2022-10-26T12:04:19;24.10;1.00
33023;DHT22;19390;51.460;5.710;2022-10-26T12:06:48;23.80;1.00
33023;DHT22;19390;51.460;5.710;2022-10-26T12:09:36;23.80;1.00
33023;DHT22;19390;51.460;5.710;2022-10-26T12:12:33;23.40;1.00
33023;DHT22;19390;51.460;5.710;2022-10-26T12:15:19;24.30;1.00
33023;DHT22;19390;51.460;5.710;2022-10-26T12:17:55;24.70;1.00
33023;DHT22;19390;51.460;5.710;2022-10-26T12:23:09;25.00;1.00
33023;DHT22;19390;51.460;5.710;2022-10-26T12:25:35;24.60;1.00
33023;DHT22;19390;51.460;5.710;2022-10-26T12:28:01;25.30;99.90
33023;DHT22;19390;51.460;5.710;2022-10-26T12:30:36;26.40;1.00
33023;DHT22;19390;51.460;5.710;2022-10-26T12:33:28;25.50;1.00
33023;DHT22;19390;51.460;5.710;2022-10-26T12:35:54;25.10;99.90
33023;DHT22;19390;51.460;5.710;2022-10-26T12:41:14;26.20;1.00
33023;DHT22;19390;51.460;5.710;2022-10-26T12:43:42;23.60;99.90
33023;DHT22;19390;51.460;5.710;2022-10-26T12:48:43;22.70;15.00
33023;DHT22;19390;51.460;5.710;2022-10-26T12:56:50;26.30;1.00
33023;DHT22;19390;51.460;5.710;2022-10-26T13:07:33;25.50;1.00
33023;DHT22;19390;51.460;5.710;2022-10-26T13:12:47;26.40;1.00
33023;DHT22;19390;51.460;5.710;2022-10-26T13:15:27;26.70;1.00
33023;DHT22;19390;51.460;5.710;2022-10-26T13:18:00;26.30;1.00
33023;DHT22;19390;51.460;5.710;2022-10-26T13:20:28;27.10;1.00
33023;DHT22;19390;51.460;5.710;2022-10-26T13:22:54;27.80;99.90
33023;DHT22;19390;51.460;5.710;2022-10-26T13:25:30;26.00;1.00
33023;DHT22;19390;51.460;5.710;2022-10-26T13:28:03;27.10;1.00
33023;DHT22;19390;51.460;5.710;2022-10-26T13:32:58;26.40;1.00
33023;DHT22;19390;51.460;5.710;2022-10-26T13:35:25;26.80;1.00
33023;DHT22;19390;51.460;5.710;2022-10-26T13:37:54;25.70;1.00
33023;DHT22;19390;51.460;5.710;2022-10-26T13:40:23;26.10;1.00
33023;DHT22;19390;51.460;5.710;2022-10-26T13:42:54;25.60;1.00
33023;DHT22;19390;51.460;5.710;2022-10-26T13:45:33;25.60;1.00
33023;DHT22;19390;51.460;5.710;2022-10-26T13:48:19;25.30;1.00
33023;DHT22;19390;51.460;5.710;2022-10-26T13:50:51;25.00;1.00
33023;DHT22;19390;51.460;5.710;2022-10-26T13:53:19;25.30;99.90
33023;DHT22;19390;51.460;5.710;2022-10-26T13:55:53;25.30;1.00
33023;DHT22;19390;51.460;5.710;2022-10-26T13:58:33;24.80;1.00
33023;DHT22;19390;51.460;5.710;2022-10-26T14:01:01;24.40;1.00
33023;DHT22;19390;51.460;5.710;2022-10-26T14:03:27;24.90;1.00
33023;DHT22;19390;51.460;5.710;2022-10-26T14:05:53;23.70;1.00
33023;DHT22;19390;51.460;5.710;2022-10-26T14:08:19;24.70;1.00
33023;DHT22;19390;51.460;5.710;2022-10-26T14:10:50;23.50;1.00
33023;DHT22;19390;51.460;5.710;2022-10-26T14:13:18;23.80;1.00
33023;DHT22;19390;51.460;5.710;2022-10-26T14:15:46;24.00;1.00
33023;DHT22;19390;51.460;5.710;2022-10-26T14:18:22;23.40;1.00
33023;DHT22;19390;51.460;5.710;2022-10-26T14:23:25;24.10;1.00
33023;DHT22;19390;51.460;5.710;2022-10-26T14:25:55;24.30;1.00
33023;DHT22;19390;51.460;5.710;2022-10-26T14:28:22;24.50;1.00
33023;DHT22;19390;51.460;5.710;2022-10-26T14:30:47;23.60;1.00
33023;DHT22;19390;51.460;5.710;2022-10-26T14:33:19;23.20;1.00
33023;DHT22;19390;51.460;5.710;2022-10-26T14:35:46;22.30;1.00
33023;DHT22;19390;51.460;5.710;2022-10-26T14:38:24;22.40;1.00
33023;DHT22;19390;51.460;5.710;2022-10-26T14:40:53;22.30;1.00
33023;DHT22;19390;51.460;5.710;2022-10-26T14:43:21;22.30;1.00
33023;DHT22;19390;51.460;5.710;2022-10-26T14:45:48;21.70;1.00
33023;DHT22;19390;51.460;5.710;2022-10-26T14:48:31;21.90;99.90
33023;DHT22;19390;51.460;5.710;2022-10-26T14:53:46;22.10;99.90
33023;DHT22;19390;51.460;5.710;2022-10-26T14:58:48;23.00;1.00
33023;DHT22;19390;51.460;5.710;2022-10-26T15:03:57;23.00;99.90
33023;DHT22;19390;51.460;5.710;2022-10-26T15:06:42;23.20;1.00
33023;DHT22;19390;51.460;5.710;2022-10-26T15:09:28;22.80;96.20
33023;DHT22;19390;51.460;5.710;2022-10-26T15:11:54;22.30;99.90
33023;DHT22;19390;51.460;5.710;2022-10-26T15:14:19;21.90;1.00
33023;DHT22;19390;51.460;5.710;2022-10-26T15:16:53;21.90;1.00
33023;DHT22;19390;51.460;5.710;2022-10-26T15:19:20;21.20;99.90
33023;DHT22;19390;51.460;5.710;2022-10-26T15:21:49;21.10;1.00
33023;DHT22;19390;51.460;5.710;2022-10-26T15:26:44;20.50;89.90
33023;DHT22;19390;51.460;5.710;2022-10-26T15:29:32;20.30;83.90
33023;DHT22;19390;51.460;5.710;2022-10-26T15:31:59;20.50;1.00
33023;DHT22;19390;51.460;5.710;2022-10-26T15:34:25;20.40;99.90
33023;DHT22;19390;51.460;5.710;2022-10-26T15:36:51;20.50;1.00
33023;DHT22;19390;51.460;5.710;2022-10-26T15:39:16;20.70;1.00
33023;DHT22;19390;51.460;5.710;2022-10-26T15:41:46;20.30;1.00
33023;DHT22;19390;51.460;5.710;2022-10-26T15:44:15;20.10;1.00
33023;DHT22;19390;51.460;5.710;2022-10-26T15:46:42;19.70;1.00
33023;DHT22;19390;51.460;5.710;2022-10-26T15:49:17;19.60;1.00
33023;DHT22;19390;51.460;5.710;2022-10-26T15:51:45;19.60;99.90
33023;DHT22;19390;51.460;5.710;2022-10-26T15:54:10;19.40;1.00
33023;DHT22;19390;51.460;5.710;2022-10-26T15:56:36;19.40;1.00
33023;DHT22;19390;51.460;5.710;2022-10-26T15:59:17;19.40;1.00
33023;DHT22;19390;51.460;5.710;2022-10-26T16:01:43;19.50;99.90
33023;DHT22;19390;51.460;5.710;2022-10-26T16:04:10;19.40;99.90
33023;DHT22;19390;51.460;5.710;2022-10-26T16:06:40;19.40;99.90
33023;DHT22;19390;51.460;5.710;2022-10-26T16:09:10;19.30;99.90
33023;DHT22;19390;51.460;5.710;2022-10-26T16:11:37;19.20;99.90
33023;DHT22;19390;51.460;5.710;2022-10-26T16:14:03;19.10;99.90
33023;DHT22;19390;51.460;5.710;2022-10-26T16:16:29;19.00;99.90
33023;DHT22;19390;51.460;5.710;2022-10-26T16:18:55;18.80;99.90
33023;DHT22;19390;51.460;5.710;2022-10-26T16:21:22;18.80;99.90
33023;DHT22;19390;51.460;5.710;2022-10-26T16:23:50;18.70;99.90
33023;DHT22;19390;51.460;5.710;2022-10-26T16:26:17;18.70;99.90
33023;DHT22;19390;51.460;5.710;2022-10-26T16:28:43;18.60;99.90
33023;DHT22;19390;51.460;5.710;2022-10-26T16:31:14;18.50;99.90
33023;DHT22;19390;51.460;5.710;2022-10-26T16:33:40;18.50;99.90
33023;DHT22;19390;51.460;5.710;2022-10-26T16:36:06;18.30;99.90
33023;DHT22;19390;51.460;5.710;2022-10-26T16:38:32;18.20;99.90
33023;DHT22;19390;51.460;5.710;2022-10-26T16:41:03;18.10;99.90
33023;DHT22;19390;51.460;5.710;2022-10-26T16:43:36;17.90;99.90
33023;DHT22;19390;51.460;5.710;2022-10-26T16:46:10;17.70;99.90
33023;DHT22;19390;51.460;5.710;2022-10-26T16:48:38;17.60;99.90
33023;DHT22;19390;51.460;5.710;2022-10-26T16:51:08;17.60;99.90
33023;DHT22;19390;51.460;5.710;2022-10-26T16:53:34;17.50;99.90
33023;DHT22;19390;51.460;5.710;2022-10-26T16:56:05;17.30;99.90
33023;DHT22;19390;51.460;5.710;2022-10-26T16:58:31;17.30;99.90
33023;DHT22;19390;51.460;5.710;2022-10-26T17:00:57;17.20;99.90
33023;DHT22;19390;51.460;5.710;2022-10-26T17:03:23;17.10;99.90
33023;DHT22;19390;51.460;5.710;2022-10-26T17:06:05;17.00;99.90
33023;DHT22;19390;51.460;5.710;2022-10-26T17:08:32;17.00;99.90
33023;DHT22;19390;51.460;5.710;2022-10-26T17:13:31;16.80;99.90
33023;DHT22;19390;51.460;5.710;2022-10-26T17:16:13;16.70;99.90
33023;DHT22;19390;51.460;5.710;2022-10-26T17:18:40;16.60;99.90
33023;DHT22;19390;51.460;5.710;2022-10-26T17:21:07;16.50;99.90
33023;DHT22;19390;51.460;5.710;2022-10-26T17:23:33;16.30;99.90
33023;DHT22;19390;51.460;5.710;2022-10-26T17:26:07;16.30;99.90
33023;DHT22;19390;51.460;5.710;2022-10-26T17:28:33;16.30;99.90
33023;DHT22;19390;51.460;5.710;2022-10-26T17:31:08;16.20;99.90
33023;DHT22;19390;51.460;5.710;2022-10-26T17:33:36;16.20;99.90
33023;DHT22;19390;51.460;5.710;2022-10-26T17:36:03;16.20;99.90
33023;DHT22;19390;51.460;5.710;2022-10-26T17:38:31;16.10;99.90
33023;DHT22;19390;51.460;5.710;2022-10-26T17:41:05;16.10;99.90
33023;DHT22;19390;51.460;5.710;2022-10-26T17:43:32;15.90;99.90
33023;DHT22;19390;51.460;5.710;2022-10-26T17:45:59;15.90;99.90